sensor_id;sensor_type;location;lat;lon;timestamp;P1;durP1;ratioP1;P2;durP2;ratioP2
76714;SDS011;65644;44.990;20.288;2023-03-11T00:01:04;21.17;;;10.82;;
76714;SDS011;65644;44.990;20.288;2023-03-11T00:03:30;14.10;;;9.20;;
76714;SDS011;65644;44.990;20.288;2023-03-11T00:05:59;12.88;;;7.88;;
76714;SDS011;65644;44.990;20.288;2023-03-11T00:08:25;10.25;;;7.60;;
76714;SDS011;65644;44.990;20.288;2023-03-11T00:10:53;6.75;;;6.05;;
76714;SDS011;65644;44.990;20.288;2023-03-11T00:13:19;9.57;;;6.68;;
76714;SDS011;65644;44.990;20.288;2023-03-11T00:15:46;20.63;;;8.93;;
76714;SDS011;65644;44.990;20.288;2023-03-11T00:18:13;10.25;;;8.20;;
76714;SDS011;65644;44.990;20.288;2023-03-11T00:20:40;8.68;;;6.65;;
76714;SDS011;65644;44.990;20.288;2023-03-11T00:23:07;9.02;;;7.53;;
76714;SDS011;65644;44.990;20.288;2023-03-11T00:25:34;9.77;;;8.02;;
76714;SDS011;65644;44.990;20.288;2023-03-11T00:28:00;9.50;;;7.75;;
76714;SDS011;65644;44.990;20.288;2023-03-11T00:30:26;9.65;;;8.10;;
76714;SDS011;65644;44.990;20.288;2023-03-11T00:32:53;14.02;;;10.35;;
76714;SDS011;65644;44.990;20.288;2023-03-11T00:35:21;17.52;;;11.43;;
76714;SDS011;65644;44.990;20.288;2023-03-11T00:37:48;17.98;;;11.65;;
76714;SDS011;65644;44.990;20.288;2023-03-11T00:40:18;20.65;;;13.25;;
76714;SDS011;65644;44.990;20.288;2023-03-11T00:42:44;16.40;;;11.48;;
76714;SDS011;65644;44.990;20.288;2023-03-11T00:45:10;14.27;;;10.20;;
76714;SDS011;65644;44.990;20.288;2023-03-11T00:47:37;14.55;;;10.48;;
76714;SDS011;65644;44.990;20.288;2023-03-11T00:50:03;13.68;;;9.90;;
76714;SDS011;65644;44.990;20.288;2023-03-11T00:52:29;12.75;;;9.93;;
76714;SDS011;65644;44.990;20.288;2023-03-11T00:54:55;13.32;;;8.80;;
76714;SDS011;65644;44.990;20.288;2023-03-11T00:57:21;11.57;;;9.60;;
76714;SDS011;65644;44.990;20.288;2023-03-11T00:59:47;13.18;;;9.32;;
76714;SDS011;65644;44.990;20.288;2023-03-11T01:02:13;13.18;;;9.80;;
76714;SDS011;65644;44.990;20.288;2023-03-11T01:04:39;12.57;;;10.35;;
76714;SDS011;65644;44.990;20.288;2023-03-11T01:07:05;14.77;;;10.77;;
76714;SDS011;65644;44.990;20.288;2023-03-11T01:09:31;16.25;;;11.05;;
76714;SDS011;65644;44.990;20.288;2023-03-11T01:11:57;15.05;;;11.07;;
76714;SDS011;65644;44.990;20.288;2023-03-11T01:14:23;15.18;;;11.85;;
76714;SDS011;65644;44.990;20.288;2023-03-11T01:16:49;14.98;;;12.48;;
76714;SDS011;65644;44.990;20.288;2023-03-11T01:19:15;15.15;;;13.07;;
76714;SDS011;65644;44.990;20.288;2023-03-11T01:21:41;15.07;;;13.05;;
76714;SDS011;65644;44.990;20.288;2023-03-11T01:24:07;15.63;;;12.73;;
76714;SDS011;65644;44.990;20.288;2023-03-11T01:26:34;16.33;;;13.15;;
76714;SDS011;65644;44.990;20.288;2023-03-11T01:29:00;15.77;;;12.70;;
76714;SDS011;65644;44.990;20.288;2023-03-11T01:31:26;16.90;;;12.18;;
76714;SDS011;65644;44.990;20.288;2023-03-11T01:33:52;14.85;;;11.63;;
76714;SDS011;65644;44.990;20.288;2023-03-11T01:36:18;13.15;;;11.25;;
76714;SDS011;65644;44.990;20.288;2023-03-11T01:38:44;15.30;;;12.02;;
76714;SDS011;65644;44.990;20.288;2023-03-11T01:41:10;14.65;;;11.95;;
76714;SDS011;65644;44.990;20.288;2023-03-11T01:51:09;11.18;;;8.98;;
76714;SDS011;65644;44.990;20.288;2023-03-11T01:53:35;10.60;;;8.93;;
76714;SDS011;65644;44.990;20.288;2023-03-11T01:56:02;11.82;;;8.88;;
76714;SDS011;65644;44.990;20.288;2023-03-11T01:58:30;10.82;;;9.25;;
76714;SDS011;65644;44.990;20.288;2023-03-11T02:00:57;13.55;;;10.13;;
76714;SDS011;65644;44.990;20.288;2023-03-11T02:03:31;11.25;;;9.77;;
76714;SDS011;65644;44.990;20.288;2023-03-11T02:06:01;13.07;;;10.80;;
76714;SDS011;65644;44.990;20.288;2023-03-11T02:08:29;11.32;;;8.07;;
76714;SDS011;65644;44.990;20.288;2023-03-11T02:10:58;10.77;;;7.90;;
76714;SDS011;65644;44.990;20.288;2023-03-11T02:13:24;11.55;;;8.88;;
76714;SDS011;65644;44.990;20.288;2023-03-11T02:15:50;9.38;;;8.13;;
76714;SDS011;65644;44.990;20.288;2023-03-11T02:18:17;9.45;;;8.23;;
76714;SDS011;65644;44.990;20.288;2023-03-11T02:23:11;11.43;;;8.80;;
76714;SDS011;65644;44.990;20.288;2023-03-11T02:25:43;10.50;;;8.82;;
76714;SDS011;65644;44.990;20.288;2023-03-11T02:28:11;12.02;;;9.13;;
76714;SDS011;65644;44.990;20.288;2023-03-11T02:30:39;13.15;;;9.25;;
76714;SDS011;65644;44.990;20.288;2023-03-11T02:33:06;9.75;;;8.10;;
76714;SDS011;65644;44.990;20.288;2023-03-11T02:35:33;11.15;;;7.75;;
76714;SDS011;65644;44.990;20.288;2023-03-11T02:37:59;10.52;;;8.23;;
76714;SDS011;65644;44.990;20.288;2023-03-11T02:45:26;9.07;;;7.20;;
76714;SDS011;65644;44.990;20.288;2023-03-11T02:47:54;8.05;;;6.88;;
76714;SDS011;65644;44.990;20.288;2023-03-11T02:50:20;11.70;;;7.35;;
76714;SDS011;65644;44.990;20.288;2023-03-11T02:52:47;8.68;;;7.30;;
76714;SDS011;65644;44.990;20.288;2023-03-11T02:55:14;10.07;;;8.20;;
76714;SDS011;65644;44.990;20.288;2023-03-11T02:57:42;9.57;;;7.97;;
76714;SDS011;65644;44.990;20.288;2023-03-11T03:00:08;8.73;;;7.30;;
76714;SDS011;65644;44.990;20.288;2023-03-11T03:02:35;9.02;;;7.40;;
76714;SDS011;65644;44.990;20.288;2023-03-11T03:05:02;9.13;;;8.02;;
76714;SDS011;65644;44.990;20.288;2023-03-11T03:07:28;9.20;;;8.15;;
76714;SDS011;65644;44.990;20.288;2023-03-11T03:09:54;12.18;;;8.73;;
76714;SDS011;65644;44.990;20.288;2023-03-11T03:12:20;12.15;;;9.82;;
76714;SDS011;65644;44.990;20.288;2023-03-11T03:14:46;12.23;;;9.80;;
76714;SDS011;65644;44.990;20.288;2023-03-11T03:17:12;12.35;;;9.75;;
76714;SDS011;65644;44.990;20.288;2023-03-11T03:19:38;11.50;;;9.32;;
76714;SDS011;65644;44.990;20.288;2023-03-11T03:22:04;13.57;;;9.52;;
76714;SDS011;65644;44.990;20.288;2023-03-11T03:24:30;13.65;;;10.30;;
76714;SDS011;65644;44.990;20.288;2023-03-11T03:27:05;13.40;;;10.88;;
76714;SDS011;65644;44.990;20.288;2023-03-11T03:29:31;13.70;;;10.10;;
76714;SDS011;65644;44.990;20.288;2023-03-11T03:31:58;13.02;;;10.43;;
76714;SDS011;65644;44.990;20.288;2023-03-11T03:34:24;11.60;;;10.48;;
76714;SDS011;65644;44.990;20.288;2023-03-11T03:36:50;15.68;;;11.15;;
76714;SDS011;65644;44.990;20.288;2023-03-11T03:39:16;12.30;;;11.02;;
76714;SDS011;65644;44.990;20.288;2023-03-11T03:41:43;12.23;;;10.77;;
76714;SDS011;65644;44.990;20.288;2023-03-11T03:44:10;13.32;;;10.32;;
76714;SDS011;65644;44.990;20.288;2023-03-11T03:46:36;14.73;;;11.52;;
76714;SDS011;65644;44.990;20.288;2023-03-11T03:49:02;14.18;;;10.45;;
76714;SDS011;65644;44.990;20.288;2023-03-11T03:51:28;12.38;;;10.98;;
76714;SDS011;65644;44.990;20.288;2023-03-11T03:53:54;14.30;;;11.50;;
76714;SDS011;65644;44.990;20.288;2023-03-11T03:56:20;13.88;;;11.88;;
76714;SDS011;65644;44.990;20.288;2023-03-11T03:58:46;17.67;;;12.45;;
76714;SDS011;65644;44.990;20.288;2023-03-11T04:01:12;19.15;;;13.05;;
76714;SDS011;65644;44.990;20.288;2023-03-11T04:03:38;16.15;;;13.10;;
76714;SDS011;65644;44.990;20.288;2023-03-11T04:06:26;14.73;;;13.05;;
76714;SDS011;65644;44.990;20.288;2023-03-11T04:08:51;15.23;;;13.05;;
76714;SDS011;65644;44.990;20.288;2023-03-11T04:11:18;15.75;;;13.10;;
76714;SDS011;65644;44.990;20.288;2023-03-11T04:13:44;13.90;;;12.20;;
76714;SDS011;65644;44.990;20.288;2023-03-11T04:16:17;15.85;;;12.52;;
76714;SDS011;65644;44.990;20.288;2023-03-11T04:18:44;15.50;;;12.00;;
76714;SDS011;65644;44.990;20.288;2023-03-11T04:21:10;15.32;;;11.65;;
76714;SDS011;65644;44.990;20.288;2023-03-11T04:23:36;16.48;;;13.10;;
76714;SDS011;65644;44.990;20.288;2023-03-11T04:26:02;14.75;;;12.10;;
76714;SDS011;65644;44.990;20.288;2023-03-11T04:28:28;16.20;;;13.00;;
76714;SDS011;65644;44.990;20.288;2023-03-11T04:30:54;14.82;;;12.73;;
76714;SDS011;65644;44.990;20.288;2023-03-11T04:33:20;16.55;;;12.68;;
76714;SDS011;65644;44.990;20.288;2023-03-11T04:35:46;18.10;;;13.20;;
76714;SDS011;65644;44.990;20.288;2023-03-11T04:38:12;17.50;;;13.75;;
76714;SDS011;65644;44.990;20.288;2023-03-11T04:40:38;16.13;;;13.30;;
76714;SDS011;65644;44.990;20.288;2023-03-11T04:43:05;20.90;;;15.07;;
76714;SDS011;65644;44.990;20.288;2023-03-11T04:45:31;21.10;;;14.52;;
76714;SDS011;65644;44.990;20.288;2023-03-11T04:47:57;16.00;;;14.02;;
76714;SDS011;65644;44.990;20.288;2023-03-11T04:50:23;17.83;;;14.73;;
76714;SDS011;65644;44.990;20.288;2023-03-11T04:52:49;17.15;;;14.10;;
76714;SDS011;65644;44.990;20.288;2023-03-11T04:55:15;16.10;;;14.13;;
76714;SDS011;65644;44.990;20.288;2023-03-11T04:57:42;18.25;;;14.10;;
76714;SDS011;65644;44.990;20.288;2023-03-11T05:00:09;19.83;;;13.98;;
76714;SDS011;65644;44.990;20.288;2023-03-11T05:02:36;13.25;;;11.85;;
76714;SDS011;65644;44.990;20.288;2023-03-11T05:05:02;16.38;;;11.55;;
76714;SDS011;65644;44.990;20.288;2023-03-11T05:07:29;15.73;;;12.90;;
76714;SDS011;65644;44.990;20.288;2023-03-11T05:09:55;20.00;;;12.90;;
76714;SDS011;65644;44.990;20.288;2023-03-11T05:12:21;14.13;;;12.10;;
76714;SDS011;65644;44.990;20.288;2023-03-11T05:14:47;16.42;;;13.20;;
76714;SDS011;65644;44.990;20.288;2023-03-11T05:17:13;14.55;;;11.10;;
76714;SDS011;65644;44.990;20.288;2023-03-11T05:19:40;12.57;;;10.70;;
76714;SDS011;65644;44.990;20.288;2023-03-11T05:22:06;12.93;;;9.63;;
76714;SDS011;65644;44.990;20.288;2023-03-11T05:24:32;10.90;;;8.82;;
76714;SDS011;65644;44.990;20.288;2023-03-11T05:26:58;10.00;;;8.38;;
76714;SDS011;65644;44.990;20.288;2023-03-11T05:29:25;7.70;;;5.85;;
76714;SDS011;65644;44.990;20.288;2023-03-11T05:31:52;9.18;;;5.88;;
76714;SDS011;65644;44.990;20.288;2023-03-11T05:34:18;5.82;;;4.40;;
76714;SDS011;65644;44.990;20.288;2023-03-11T05:36:44;4.68;;;4.18;;
76714;SDS011;65644;44.990;20.288;2023-03-11T05:39:10;4.53;;;4.05;;
76714;SDS011;65644;44.990;20.288;2023-03-11T05:41:36;5.45;;;4.40;;
76714;SDS011;65644;44.990;20.288;2023-03-11T05:44:02;7.10;;;4.15;;
76714;SDS011;65644;44.990;20.288;2023-03-11T05:46:29;5.22;;;4.65;;
76714;SDS011;65644;44.990;20.288;2023-03-11T05:48:56;5.40;;;4.63;;
76714;SDS011;65644;44.990;20.288;2023-03-11T05:51:22;5.78;;;4.45;;
76714;SDS011;65644;44.990;20.288;2023-03-11T05:53:48;6.00;;;5.10;;
76714;SDS011;65644;44.990;20.288;2023-03-11T05:56:14;4.15;;;3.75;;
76714;SDS011;65644;44.990;20.288;2023-03-11T05:58:41;6.82;;;4.45;;
76714;SDS011;65644;44.990;20.288;2023-03-11T06:01:10;4.55;;;3.72;;
76714;SDS011;65644;44.990;20.288;2023-03-11T06:03:37;5.10;;;4.25;;
76714;SDS011;65644;44.990;20.288;2023-03-11T06:06:03;4.65;;;4.20;;
76714;SDS011;65644;44.990;20.288;2023-03-11T06:08:30;5.72;;;4.80;;
76714;SDS011;65644;44.990;20.288;2023-03-11T06:11:08;6.18;;;5.57;;
76714;SDS011;65644;44.990;20.288;2023-03-11T06:13:35;5.30;;;3.90;;
76714;SDS011;65644;44.990;20.288;2023-03-11T06:16:01;5.35;;;4.15;;
76714;SDS011;65644;44.990;20.288;2023-03-11T06:18:27;5.47;;;4.88;;
76714;SDS011;65644;44.990;20.288;2023-03-11T06:20:55;6.15;;;5.15;;
76714;SDS011;65644;44.990;20.288;2023-03-11T06:23:22;4.53;;;3.70;;
76714;SDS011;65644;44.990;20.288;2023-03-11T06:25:58;3.67;;;1.77;;
76714;SDS011;65644;44.990;20.288;2023-03-11T06:28:24;1.92;;;1.17;;
76714;SDS011;65644;44.990;20.288;2023-03-11T06:30:51;3.33;;;1.88;;
76714;SDS011;65644;44.990;20.288;2023-03-11T06:33:17;3.50;;;2.78;;
76714;SDS011;65644;44.990;20.288;2023-03-11T06:35:43;5.22;;;2.72;;
76714;SDS011;65644;44.990;20.288;2023-03-11T06:38:09;3.67;;;2.55;;
76714;SDS011;65644;44.990;20.288;2023-03-11T06:40:35;3.63;;;3.22;;
76714;SDS011;65644;44.990;20.288;2023-03-11T06:43:02;5.93;;;4.45;;
76714;SDS011;65644;44.990;20.288;2023-03-11T06:45:28;3.25;;;2.42;;
76714;SDS011;65644;44.990;20.288;2023-03-11T06:47:54;3.13;;;2.50;;
76714;SDS011;65644;44.990;20.288;2023-03-11T06:50:20;6.38;;;3.40;;
76714;SDS011;65644;44.990;20.288;2023-03-11T06:52:48;7.07;;;4.00;;
76714;SDS011;65644;44.990;20.288;2023-03-11T06:55:14;3.22;;;1.63;;
76714;SDS011;65644;44.990;20.288;2023-03-11T06:57:40;1.92;;;0.98;;
76714;SDS011;65644;44.990;20.288;2023-03-11T07:00:06;2.78;;;0.93;;
76714;SDS011;65644;44.990;20.288;2023-03-11T07:02:36;1.88;;;0.63;;
76714;SDS011;65644;44.990;20.288;2023-03-11T07:05:02;2.65;;;0.70;;
76714;SDS011;65644;44.990;20.288;2023-03-11T07:07:28;1.88;;;0.68;;
76714;SDS011;65644;44.990;20.288;2023-03-11T07:09:54;4.30;;;0.80;;
76714;SDS011;65644;44.990;20.288;2023-03-11T07:12:24;1.08;;;0.45;;
76714;SDS011;65644;44.990;20.288;2023-03-11T07:14:54;2.33;;;0.50;;
76714;SDS011;65644;44.990;20.288;2023-03-11T07:17:20;5.15;;;0.50;;
76714;SDS011;65644;44.990;20.288;2023-03-11T07:19:46;1.80;;;0.60;;
76714;SDS011;65644;44.990;20.288;2023-03-11T07:22:12;5.25;;;1.00;;
76714;SDS011;65644;44.990;20.288;2023-03-11T07:24:38;1.50;;;0.43;;
76714;SDS011;65644;44.990;20.288;2023-03-11T07:27:05;4.60;;;0.50;;
76714;SDS011;65644;44.990;20.288;2023-03-11T07:29:31;5.40;;;0.93;;
76714;SDS011;65644;44.990;20.288;2023-03-11T07:31:57;2.55;;;0.55;;
76714;SDS011;65644;44.990;20.288;2023-03-11T07:34:23;5.22;;;0.50;;
76714;SDS011;65644;44.990;20.288;2023-03-11T07:36:49;9.07;;;1.10;;
76714;SDS011;65644;44.990;20.288;2023-03-11T07:39:15;3.58;;;0.88;;
76714;SDS011;65644;44.990;20.288;2023-03-11T07:41:42;5.32;;;0.60;;
76714;SDS011;65644;44.990;20.288;2023-03-11T07:44:13;5.65;;;0.98;;
76714;SDS011;65644;44.990;20.288;2023-03-11T07:46:39;7.13;;;1.02;;
76714;SDS011;65644;44.990;20.288;2023-03-11T07:49:05;6.32;;;1.38;;
76714;SDS011;65644;44.990;20.288;2023-03-11T07:51:32;4.32;;;1.90;;
76714;SDS011;65644;44.990;20.288;2023-03-11T07:53:59;3.13;;;0.50;;
76714;SDS011;65644;44.990;20.288;2023-03-11T07:56:26;15.48;;;2.05;;
76714;SDS011;65644;44.990;20.288;2023-03-11T07:58:53;12.43;;;1.35;;
76714;SDS011;65644;44.990;20.288;2023-03-11T08:01:20;1.83;;;0.70;;
76714;SDS011;65644;44.990;20.288;2023-03-11T08:03:47;2.42;;;0.40;;
76714;SDS011;65644;44.990;20.288;2023-03-11T08:06:15;8.05;;;0.95;;
76714;SDS011;65644;44.990;20.288;2023-03-11T08:08:42;7.05;;;0.38;;
76714;SDS011;65644;44.990;20.288;2023-03-11T08:11:08;3.78;;;0.10;;
76714;SDS011;65644;44.990;20.288;2023-03-11T08:13:34;4.72;;;0.43;;
76714;SDS011;65644;44.990;20.288;2023-03-11T08:16:04;2.83;;;0.20;;
76714;SDS011;65644;44.990;20.288;2023-03-11T08:18:30;1.35;;;0.20;;
76714;SDS011;65644;44.990;20.288;2023-03-11T08:20:57;3.80;;;0.40;;
76714;SDS011;65644;44.990;20.288;2023-03-11T08:23:23;4.85;;;0.65;;
76714;SDS011;65644;44.990;20.288;2023-03-11T08:25:49;5.15;;;1.70;;
76714;SDS011;65644;44.990;20.288;2023-03-11T08:28:15;6.60;;;1.15;;
76714;SDS011;65644;44.990;20.288;2023-03-11T08:30:41;4.20;;;1.27;;
76714;SDS011;65644;44.990;20.288;2023-03-11T08:33:07;2.50;;;0.63;;
76714;SDS011;65644;44.990;20.288;2023-03-11T08:35:33;6.45;;;1.83;;
76714;SDS011;65644;44.990;20.288;2023-03-11T08:37:59;5.85;;;1.42;;
76714;SDS011;65644;44.990;20.288;2023-03-11T08:40:25;2.80;;;0.20;;
76714;SDS011;65644;44.990;20.288;2023-03-11T08:42:52;1.90;;;0.52;;
76714;SDS011;65644;44.990;20.288;2023-03-11T08:45:20;1.58;;;0.38;;
76714;SDS011;65644;44.990;20.288;2023-03-11T08:47:46;5.53;;;0.60;;
76714;SDS011;65644;44.990;20.288;2023-03-11T08:50:13;2.65;;;1.17;;
76714;SDS011;65644;44.990;20.288;2023-03-11T08:52:39;11.48;;;1.38;;
76714;SDS011;65644;44.990;20.288;2023-03-11T08:55:06;9.13;;;1.17;;
76714;SDS011;65644;44.990;20.288;2023-03-11T08:57:33;3.50;;;0.57;;
76714;SDS011;65644;44.990;20.288;2023-03-11T08:59:59;8.35;;;0.82;;
76714;SDS011;65644;44.990;20.288;2023-03-11T09:02:25;7.43;;;1.00;;
76714;SDS011;65644;44.990;20.288;2023-03-11T09:04:51;10.25;;;0.80;;
76714;SDS011;65644;44.990;20.288;2023-03-11T09:07:18;9.52;;;0.50;;
76714;SDS011;65644;44.990;20.288;2023-03-11T09:09:44;13.52;;;1.10;;
76714;SDS011;65644;44.990;20.288;2023-03-11T09:12:10;10.13;;;1.13;;
76714;SDS011;65644;44.990;20.288;2023-03-11T09:14:41;11.15;;;0.98;;
76714;SDS011;65644;44.990;20.288;2023-03-11T09:17:07;8.77;;;0.85;;
76714;SDS011;65644;44.990;20.288;2023-03-11T09:19:34;11.07;;;0.75;;
76714;SDS011;65644;44.990;20.288;2023-03-11T09:22:01;6.82;;;0.85;;
76714;SDS011;65644;44.990;20.288;2023-03-11T09:24:28;12.43;;;0.90;;
76714;SDS011;65644;44.990;20.288;2023-03-11T09:26:54;13.65;;;0.40;;
76714;SDS011;65644;44.990;20.288;2023-03-11T09:29:20;12.05;;;0.70;;
76714;SDS011;65644;44.990;20.288;2023-03-11T09:31:46;10.00;;;1.15;;
76714;SDS011;65644;44.990;20.288;2023-03-11T09:34:12;11.10;;;0.93;;
76714;SDS011;65644;44.990;20.288;2023-03-11T09:36:41;19.00;;;0.80;;
76714;SDS011;65644;44.990;20.288;2023-03-11T09:39:07;15.95;;;1.33;;
76714;SDS011;65644;44.990;20.288;2023-03-11T09:48:58;12.32;;;0.95;;
76714;SDS011;65644;44.990;20.288;2023-03-11T09:51:26;7.57;;;0.93;;
76714;SDS011;65644;44.990;20.288;2023-03-11T09:53:55;3.65;;;0.20;;
76714;SDS011;65644;44.990;20.288;2023-03-11T09:56:24;5.07;;;0.40;;
76714;SDS011;65644;44.990;20.288;2023-03-11T10:01:23;4.70;;;0.90;;
76714;SDS011;65644;44.990;20.288;2023-03-11T10:03:51;4.80;;;0.68;;
76714;SDS011;65644;44.990;20.288;2023-03-11T10:06:27;7.68;;;0.40;;
76714;SDS011;65644;44.990;20.288;2023-03-11T10:09:11;6.87;;;0.53;;
76714;SDS011;65644;44.990;20.288;2023-03-11T10:14:16;5.72;;;1.08;;
76714;SDS011;65644;44.990;20.288;2023-03-11T10:16:55;6.53;;;0.60;;
76714;SDS011;65644;44.990;20.288;2023-03-11T10:24:59;4.77;;;0.30;;
76714;SDS011;65644;44.990;20.288;2023-03-11T10:27:41;7.63;;;0.47;;
76714;SDS011;65644;44.990;20.288;2023-03-11T10:30:09;12.30;;;1.05;;
76714;SDS011;65644;44.990;20.288;2023-03-11T10:37:44;2.92;;;0.30;;
76714;SDS011;65644;44.990;20.288;2023-03-11T10:40:31;10.43;;;0.57;;
76714;SDS011;65644;44.990;20.288;2023-03-11T10:42:58;5.32;;;0.80;;
76714;SDS011;65644;44.990;20.288;2023-03-11T10:45:26;2.35;;;0.50;;
76714;SDS011;65644;44.990;20.288;2023-03-11T10:47:54;8.43;;;0.63;;
76714;SDS011;65644;44.990;20.288;2023-03-11T10:50:21;7.30;;;0.88;;
76714;SDS011;65644;44.990;20.288;2023-03-11T10:53:09;7.53;;;0.68;;
76714;SDS011;65644;44.990;20.288;2023-03-11T10:55:48;3.50;;;0.32;;
76714;SDS011;65644;44.990;20.288;2023-03-11T10:58:16;6.95;;;0.93;;
76714;SDS011;65644;44.990;20.288;2023-03-11T11:00:42;7.47;;;0.75;;
76714;SDS011;65644;44.990;20.288;2023-03-11T11:03:13;10.15;;;1.33;;
76714;SDS011;65644;44.990;20.288;2023-03-11T11:05:40;4.82;;;0.43;;
76714;SDS011;65644;44.990;20.288;2023-03-11T11:08:15;4.57;;;0.30;;
76714;SDS011;65644;44.990;20.288;2023-03-11T11:10:51;5.18;;;0.25;;
76714;SDS011;65644;44.990;20.288;2023-03-11T11:13:19;22.60;;;2.00;;
76714;SDS011;65644;44.990;20.288;2023-03-11T11:26:00;12.02;;;1.90;;
76714;SDS011;65644;44.990;20.288;2023-03-11T11:28:28;8.85;;;2.92;;
76714;SDS011;65644;44.990;20.288;2023-03-11T11:30:56;11.02;;;2.45;;
76714;SDS011;65644;44.990;20.288;2023-03-11T11:36:11;9.25;;;1.70;;
76714;SDS011;65644;44.990;20.288;2023-03-11T11:38:38;8.73;;;1.73;;
76714;SDS011;65644;44.990;20.288;2023-03-11T11:41:04;5.28;;;2.42;;
76714;SDS011;65644;44.990;20.288;2023-03-11T11:43:34;8.73;;;2.25;;
76714;SDS011;65644;44.990;20.288;2023-03-11T11:46:01;7.95;;;2.50;;
76714;SDS011;65644;44.990;20.288;2023-03-11T11:48:34;6.50;;;2.30;;
76714;SDS011;65644;44.990;20.288;2023-03-11T11:51:09;10.32;;;3.25;;
76714;SDS011;65644;44.990;20.288;2023-03-11T11:56:11;12.57;;;5.03;;
76714;SDS011;65644;44.990;20.288;2023-03-11T11:58:37;13.23;;;3.95;;
76714;SDS011;65644;44.990;20.288;2023-03-11T12:08:45;9.80;;;1.80;;
76714;SDS011;65644;44.990;20.288;2023-03-11T12:11:13;11.60;;;1.90;;
76714;SDS011;65644;44.990;20.288;2023-03-11T12:24:10;7.70;;;2.85;;
76714;SDS011;65644;44.990;20.288;2023-03-11T12:26:42;14.00;;;1.90;;
76714;SDS011;65644;44.990;20.288;2023-03-11T12:29:18;7.55;;;1.50;;
76714;SDS011;65644;44.990;20.288;2023-03-11T12:31:46;20.20;;;2.70;;
76714;SDS011;65644;44.990;20.288;2023-03-11T12:34:13;22.73;;;3.75;;
76714;SDS011;65644;44.990;20.288;2023-03-11T12:36:42;8.85;;;2.75;;
76714;SDS011;65644;44.990;20.288;2023-03-11T12:44:20;18.70;;;4.72;;
76714;SDS011;65644;44.990;20.288;2023-03-11T12:49:22;18.73;;;2.72;;
76714;SDS011;65644;44.990;20.288;2023-03-11T12:54:34;5.72;;;1.42;;
76714;SDS011;65644;44.990;20.288;2023-03-11T12:57:02;5.45;;;0.88;;
76714;SDS011;65644;44.990;20.288;2023-03-11T13:04:39;4.43;;;1.25;;
76714;SDS011;65644;44.990;20.288;2023-03-11T13:12:42;5.72;;;2.50;;
76714;SDS011;65644;44.990;20.288;2023-03-11T13:17:57;5.55;;;2.30;;
76714;SDS011;65644;44.990;20.288;2023-03-11T13:28:28;5.90;;;2.35;;
76714;SDS011;65644;44.990;20.288;2023-03-11T13:31:15;19.85;;;4.65;;
76714;SDS011;65644;44.990;20.288;2023-03-11T13:34:24;32.45;;;7.65;;
76714;SDS011;65644;44.990;20.288;2023-03-11T13:36:31;18.27;;;6.05;;
76714;SDS011;65644;44.990;20.288;2023-03-11T13:39:02;14.02;;;3.47;;
76714;SDS011;65644;44.990;20.288;2023-03-11T13:41:35;11.45;;;3.25;;
76714;SDS011;65644;44.990;20.288;2023-03-11T13:44:10;6.07;;;3.50;;
76714;SDS011;65644;44.990;20.288;2023-03-11T13:46:37;7.60;;;3.67;;
76714;SDS011;65644;44.990;20.288;2023-03-11T13:51:51;19.63;;;5.32;;
76714;SDS011;65644;44.990;20.288;2023-03-11T13:54:26;17.48;;;5.07;;
76714;SDS011;65644;44.990;20.288;2023-03-11T13:56:55;13.23;;;4.32;;
76714;SDS011;65644;44.990;20.288;2023-03-11T13:59:23;12.73;;;4.32;;
76714;SDS011;65644;44.990;20.288;2023-03-11T14:01:51;10.95;;;4.30;;
76714;SDS011;65644;44.990;20.288;2023-03-11T14:04:28;18.58;;;4.47;;
76714;SDS011;65644;44.990;20.288;2023-03-11T14:06:54;12.25;;;4.25;;
76714;SDS011;65644;44.990;20.288;2023-03-11T14:09:21;12.60;;;3.22;;
76714;SDS011;65644;44.990;20.288;2023-03-11T14:11:47;16.60;;;3.35;;
76714;SDS011;65644;44.990;20.288;2023-03-11T14:14:26;11.27;;;3.13;;
76714;SDS011;65644;44.990;20.288;2023-03-11T14:16:55;13.68;;;3.20;;
76714;SDS011;65644;44.990;20.288;2023-03-11T14:19:21;9.32;;;2.60;;
76714;SDS011;65644;44.990;20.288;2023-03-11T14:21:48;11.45;;;3.08;;
76714;SDS011;65644;44.990;20.288;2023-03-11T14:24:19;8.57;;;2.80;;
76714;SDS011;65644;44.990;20.288;2023-03-11T14:26:47;6.53;;;2.05;;
76714;SDS011;65644;44.990;20.288;2023-03-11T14:29:17;4.75;;;3.50;;
76714;SDS011;65644;44.990;20.288;2023-03-11T14:31:44;5.65;;;2.22;;
76714;SDS011;65644;44.990;20.288;2023-03-11T14:34:43;4.82;;;1.33;;
76714;SDS011;65644;44.990;20.288;2023-03-11T14:37:24;4.00;;;1.75;;
76714;SDS011;65644;44.990;20.288;2023-03-11T14:39:48;8.65;;;2.50;;
76714;SDS011;65644;44.990;20.288;2023-03-11T14:42:20;7.32;;;2.47;;
76714;SDS011;65644;44.990;20.288;2023-03-11T14:44:52;5.47;;;2.30;;
76714;SDS011;65644;44.990;20.288;2023-03-11T14:47:27;5.43;;;2.97;;
76714;SDS011;65644;44.990;20.288;2023-03-11T14:49:54;5.10;;;3.17;;
76714;SDS011;65644;44.990;20.288;2023-03-11T14:52:31;7.32;;;2.92;;
76714;SDS011;65644;44.990;20.288;2023-03-11T14:54:58;4.25;;;2.92;;
76714;SDS011;65644;44.990;20.288;2023-03-11T14:57:46;12.55;;;6.00;;
76714;SDS011;65644;44.990;20.288;2023-03-11T15:00:13;8.80;;;4.60;;
76714;SDS011;65644;44.990;20.288;2023-03-11T15:03:00;10.00;;;4.07;;
76714;SDS011;65644;44.990;20.288;2023-03-11T15:05:32;7.82;;;2.90;;
76714;SDS011;65644;44.990;20.288;2023-03-11T15:07:59;7.97;;;3.00;;
76714;SDS011;65644;44.990;20.288;2023-03-11T15:10:26;8.32;;;3.15;;
76714;SDS011;65644;44.990;20.288;2023-03-11T15:13:02;10.63;;;2.45;;
76714;SDS011;65644;44.990;20.288;2023-03-11T15:15:28;4.63;;;2.35;;
76714;SDS011;65644;44.990;20.288;2023-03-11T15:17:55;8.80;;;2.95;;
76714;SDS011;65644;44.990;20.288;2023-03-11T15:20:26;10.50;;;3.33;;
76714;SDS011;65644;44.990;20.288;2023-03-11T15:22:55;7.60;;;3.25;;
76714;SDS011;65644;44.990;20.288;2023-03-11T15:25:24;9.35;;;3.40;;
76714;SDS011;65644;44.990;20.288;2023-03-11T15:27:50;8.20;;;3.60;;
76714;SDS011;65644;44.990;20.288;2023-03-11T15:30:29;6.93;;;3.97;;
76714;SDS011;65644;44.990;20.288;2023-03-11T15:32:56;8.13;;;3.65;;
76714;SDS011;65644;44.990;20.288;2023-03-11T15:35:26;2.90;;;1.98;;
76714;SDS011;65644;44.990;20.288;2023-03-11T15:40:37;5.93;;;2.92;;
76714;SDS011;65644;44.990;20.288;2023-03-11T15:45:40;6.22;;;2.70;;
76714;SDS011;65644;44.990;20.288;2023-03-11T15:48:08;5.03;;;2.10;;
76714;SDS011;65644;44.990;20.288;2023-03-11T15:50:34;8.18;;;3.38;;
76714;SDS011;65644;44.990;20.288;2023-03-11T15:53:00;7.80;;;4.63;;
76714;SDS011;65644;44.990;20.288;2023-03-11T15:55:28;6.25;;;2.47;;
76714;SDS011;65644;44.990;20.288;2023-03-11T15:57:59;6.13;;;3.08;;
76714;SDS011;65644;44.990;20.288;2023-03-11T16:00:26;5.00;;;2.65;;
76714;SDS011;65644;44.990;20.288;2023-03-11T16:02:52;6.63;;;4.28;;
76714;SDS011;65644;44.990;20.288;2023-03-11T16:05:20;12.02;;;6.88;;
76714;SDS011;65644;44.990;20.288;2023-03-11T16:07:46;4.10;;;2.90;;
76714;SDS011;65644;44.990;20.288;2023-03-11T16:10:14;3.28;;;2.42;;
76714;SDS011;65644;44.990;20.288;2023-03-11T16:12:40;7.65;;;3.05;;
76714;SDS011;65644;44.990;20.288;2023-03-11T16:15:28;4.18;;;2.58;;
76714;SDS011;65644;44.990;20.288;2023-03-11T16:17:53;6.20;;;2.83;;
76714;SDS011;65644;44.990;20.288;2023-03-11T16:20:20;4.30;;;2.78;;
76714;SDS011;65644;44.990;20.288;2023-03-11T16:22:47;3.95;;;2.40;;